sensor_id;sensor_type;location;lat;lon;timestamp;P1;durP1;ratioP1;P2;durP2;ratioP2
43152;SDS011;28756;49.064;9.290;2023-04-25T00:01:33;4.22;;;2.80;;
43152;SDS011;28756;49.064;9.290;2023-04-25T00:04:01;2.90;;;2.60;;
43152;SDS011;28756;49.064;9.290;2023-04-25T00:06:27;2.70;;;2.50;;
43152;SDS011;28756;49.064;9.290;2023-04-25T00:08:55;3.67;;;2.90;;
43152;SDS011;28756;49.064;9.290;2023-04-25T00:11:21;3.95;;;2.70;;
43152;SDS011;28756;49.064;9.290;2023-04-25T00:13:48;3.45;;;2.70;;
43152;SDS011;28756;49.064;9.290;2023-04-25T00:16:15;3.88;;;2.67;;
43152;SDS011;28756;49.064;9.290;2023-04-25T00:18:42;3.45;;;2.58;;
43152;SDS011;28756;49.064;9.290;2023-04-25T00:21:08;4.25;;;2.30;;
43152;SDS011;28756;49.064;9.290;2023-04-25T00:23:34;2.53;;;2.15;;
43152;SDS011;28756;49.064;9.290;2023-04-25T00:26:01;3.88;;;2.25;;
43152;SDS011;28756;49.064;9.290;2023-04-25T00:28:27;4.80;;;2.58;;
43152;SDS011;28756;49.064;9.290;2023-04-25T00:30:53;3.65;;;2.92;;
43152;SDS011;28756;49.064;9.290;2023-04-25T00:33:19;3.35;;;2.65;;
43152;SDS011;28756;49.064;9.290;2023-04-25T00:35:45;3.70;;;2.80;;
43152;SDS011;28756;49.064;9.290;2023-04-25T00:38:11;3.38;;;2.80;;
43152;SDS011;28756;49.064;9.290;2023-04-25T00:40:36;4.22;;;3.17;;
43152;SDS011;28756;49.064;9.290;2023-04-25T00:43:02;3.63;;;3.05;;
43152;SDS011;28756;49.064;9.290;2023-04-25T00:45:29;3.63;;;3.00;;
43152;SDS011;28756;49.064;9.290;2023-04-25T00:47:55;4.10;;;3.15;;
43152;SDS011;28756;49.064;9.290;2023-04-25T00:50:21;4.25;;;3.20;;
43152;SDS011;28756;49.064;9.290;2023-04-25T00:52:48;5.18;;;2.72;;
43152;SDS011;28756;49.064;9.290;2023-04-25T00:55:14;3.45;;;2.30;;
43152;SDS011;28756;49.064;9.290;2023-04-25T00:57:40;3.38;;;2.97;;
43152;SDS011;28756;49.064;9.290;2023-04-25T01:00:08;4.45;;;2.70;;
43152;SDS011;28756;49.064;9.290;2023-04-25T01:02:35;3.28;;;2.58;;
43152;SDS011;28756;49.064;9.290;2023-04-25T01:05:02;4.55;;;2.58;;
43152;SDS011;28756;49.064;9.290;2023-04-25T01:07:29;3.22;;;2.60;;
43152;SDS011;28756;49.064;9.290;2023-04-25T01:09:55;3.63;;;3.00;;
43152;SDS011;28756;49.064;9.290;2023-04-25T01:12:21;3.35;;;2.55;;
43152;SDS011;28756;49.064;9.290;2023-04-25T01:14:48;3.10;;;2.58;;
43152;SDS011;28756;49.064;9.290;2023-04-25T01:17:14;2.60;;;2.40;;
43152;SDS011;28756;49.064;9.290;2023-04-25T01:19:41;3.53;;;2.63;;
43152;SDS011;28756;49.064;9.290;2023-04-25T01:22:07;4.43;;;2.80;;
43152;SDS011;28756;49.064;9.290;2023-04-25T01:24:35;4.07;;;2.47;;
43152;SDS011;28756;49.064;9.290;2023-04-25T01:27:01;3.05;;;2.50;;
43152;SDS011;28756;49.064;9.290;2023-04-25T01:29:28;3.60;;;2.58;;
43152;SDS011;28756;49.064;9.290;2023-04-25T01:31:56;2.88;;;2.60;;
43152;SDS011;28756;49.064;9.290;2023-04-25T01:34:23;3.78;;;2.55;;
43152;SDS011;28756;49.064;9.290;2023-04-25T01:36:49;2.83;;;2.40;;
43152;SDS011;28756;49.064;9.290;2023-04-25T01:39:16;3.08;;;2.42;;
43152;SDS011;28756;49.064;9.290;2023-04-25T01:41:43;3.75;;;2.72;;
43152;SDS011;28756;49.064;9.290;2023-04-25T01:44:14;3.17;;;2.60;;
43152;SDS011;28756;49.064;9.290;2023-04-25T01:46:40;3.40;;;2.50;;
43152;SDS011;28756;49.064;9.290;2023-04-25T01:49:06;3.33;;;2.53;;
43152;SDS011;28756;49.064;9.290;2023-04-25T01:51:32;2.90;;;2.58;;
43152;SDS011;28756;49.064;9.290;2023-04-25T01:53:58;2.40;;;2.13;;
43152;SDS011;28756;49.064;9.290;2023-04-25T01:56:27;3.22;;;2.42;;
43152;SDS011;28756;49.064;9.290;2023-04-25T01:58:56;3.25;;;2.40;;
43152;SDS011;28756;49.064;9.290;2023-04-25T02:01:23;3.05;;;2.33;;
43152;SDS011;28756;49.064;9.290;2023-04-25T02:03:48;4.00;;;2.95;;
43152;SDS011;28756;49.064;9.290;2023-04-25T02:06:15;3.00;;;2.20;;
43152;SDS011;28756;49.064;9.290;2023-04-25T02:08:40;2.90;;;2.30;;
43152;SDS011;28756;49.064;9.290;2023-04-25T02:11:06;2.45;;;2.22;;
43152;SDS011;28756;49.064;9.290;2023-04-25T02:13:32;2.65;;;2.10;;
43152;SDS011;28756;49.064;9.290;2023-04-25T02:15:58;2.67;;;2.35;;
43152;SDS011;28756;49.064;9.290;2023-04-25T02:18:23;3.00;;;2.70;;
43152;SDS011;28756;49.064;9.290;2023-04-25T02:20:51;3.65;;;2.20;;
43152;SDS011;28756;49.064;9.290;2023-04-25T02:23:17;2.70;;;2.30;;
43152;SDS011;28756;49.064;9.290;2023-04-25T02:25:44;3.65;;;2.28;;
43152;SDS011;28756;49.064;9.290;2023-04-25T02:28:10;2.72;;;2.33;;
43152;SDS011;28756;49.064;9.290;2023-04-25T02:30:36;2.85;;;2.45;;
43152;SDS011;28756;49.064;9.290;2023-04-25T02:33:02;3.75;;;2.30;;
43152;SDS011;28756;49.064;9.290;2023-04-25T02:35:28;4.15;;;2.60;;
43152;SDS011;28756;49.064;9.290;2023-04-25T02:37:53;2.65;;;2.40;;
43152;SDS011;28756;49.064;9.290;2023-04-25T02:40:19;3.25;;;2.50;;
43152;SDS011;28756;49.064;9.290;2023-04-25T02:42:45;4.28;;;2.92;;
43152;SDS011;28756;49.064;9.290;2023-04-25T02:45:11;3.35;;;3.00;;
43152;SDS011;28756;49.064;9.290;2023-04-25T02:47:37;4.50;;;3.05;;
43152;SDS011;28756;49.064;9.290;2023-04-25T02:50:02;3.10;;;2.80;;
43152;SDS011;28756;49.064;9.290;2023-04-25T02:52:29;3.67;;;3.00;;
43152;SDS011;28756;49.064;9.290;2023-04-25T02:54:55;3.28;;;2.80;;
43152;SDS011;28756;49.064;9.290;2023-04-25T02:57:21;4.70;;;2.92;;
43152;SDS011;28756;49.064;9.290;2023-04-25T02:59:47;4.70;;;3.35;;
43152;SDS011;28756;49.064;9.290;2023-04-25T03:02:13;4.47;;;3.00;;
43152;SDS011;28756;49.064;9.290;2023-04-25T03:04:38;3.83;;;2.88;;
43152;SDS011;28756;49.064;9.290;2023-04-25T03:07:05;5.07;;;2.90;;
43152;SDS011;28756;49.064;9.290;2023-04-25T03:09:31;4.22;;;2.85;;
43152;SDS011;28756;49.064;9.290;2023-04-25T03:11:56;3.70;;;2.97;;
43152;SDS011;28756;49.064;9.290;2023-04-25T03:14:22;3.53;;;2.65;;
43152;SDS011;28756;49.064;9.290;2023-04-25T03:16:48;3.65;;;2.92;;
43152;SDS011;28756;49.064;9.290;2023-04-25T03:19:13;3.08;;;2.45;;
43152;SDS011;28756;49.064;9.290;2023-04-25T03:21:42;3.45;;;2.67;;
43152;SDS011;28756;49.064;9.290;2023-04-25T03:24:08;3.42;;;2.70;;
43152;SDS011;28756;49.064;9.290;2023-04-25T03:26:33;5.45;;;3.13;;
43152;SDS011;28756;49.064;9.290;2023-04-25T03:28:59;4.05;;;2.88;;
43152;SDS011;28756;49.064;9.290;2023-04-25T03:31:25;3.67;;;3.10;;
43152;SDS011;28756;49.064;9.290;2023-04-25T03:33:51;2.70;;;2.30;;
43152;SDS011;28756;49.064;9.290;2023-04-25T03:36:16;3.75;;;2.75;;
43152;SDS011;28756;49.064;9.290;2023-04-25T03:38:42;3.80;;;2.80;;
43152;SDS011;28756;49.064;9.290;2023-04-25T03:41:08;2.90;;;2.60;;
43152;SDS011;28756;49.064;9.290;2023-04-25T03:43:33;2.92;;;2.63;;
43152;SDS011;28756;49.064;9.290;2023-04-25T03:45:59;4.43;;;2.78;;
43152;SDS011;28756;49.064;9.290;2023-04-25T03:48:26;3.88;;;2.60;;
43152;SDS011;28756;49.064;9.290;2023-04-25T03:50:52;6.28;;;3.30;;
43152;SDS011;28756;49.064;9.290;2023-04-25T03:53:18;4.15;;;2.92;;
43152;SDS011;28756;49.064;9.290;2023-04-25T03:55:44;4.30;;;2.95;;
43152;SDS011;28756;49.064;9.290;2023-04-25T03:58:10;3.63;;;2.78;;
43152;SDS011;28756;49.064;9.290;2023-04-25T04:00:36;2.30;;;2.10;;
43152;SDS011;28756;49.064;9.290;2023-04-25T04:03:02;4.07;;;2.65;;
43152;SDS011;28756;49.064;9.290;2023-04-25T04:05:28;2.95;;;2.63;;
43152;SDS011;28756;49.064;9.290;2023-04-25T04:07:54;3.40;;;2.67;;
43152;SDS011;28756;49.064;9.290;2023-04-25T04:10:20;3.45;;;2.70;;
43152;SDS011;28756;49.064;9.290;2023-04-25T04:12:46;3.45;;;2.63;;
43152;SDS011;28756;49.064;9.290;2023-04-25T04:15:11;3.05;;;2.58;;
43152;SDS011;28756;49.064;9.290;2023-04-25T04:17:37;3.55;;;2.72;;
43152;SDS011;28756;49.064;9.290;2023-04-25T04:20:03;4.28;;;3.00;;
43152;SDS011;28756;49.064;9.290;2023-04-25T04:22:31;3.10;;;2.67;;
43152;SDS011;28756;49.064;9.290;2023-04-25T04:24:56;4.20;;;2.75;;
43152;SDS011;28756;49.064;9.290;2023-04-25T04:27:22;3.60;;;2.97;;
43152;SDS011;28756;49.064;9.290;2023-04-25T04:29:48;4.18;;;3.50;;
43152;SDS011;28756;49.064;9.290;2023-04-25T04:32:15;3.55;;;3.25;;
43152;SDS011;28756;49.064;9.290;2023-04-25T04:34:42;4.38;;;3.03;;
43152;SDS011;28756;49.064;9.290;2023-04-25T04:37:08;3.58;;;3.10;;
43152;SDS011;28756;49.064;9.290;2023-04-25T04:39:34;4.43;;;3.47;;
43152;SDS011;28756;49.064;9.290;2023-04-25T04:42:01;3.80;;;3.28;;
43152;SDS011;28756;49.064;9.290;2023-04-25T04:44:29;5.22;;;3.38;;
43152;SDS011;28756;49.064;9.290;2023-04-25T04:46:57;5.35;;;3.55;;
43152;SDS011;28756;49.064;9.290;2023-04-25T04:49:24;3.47;;;3.17;;
43152;SDS011;28756;49.064;9.290;2023-04-25T04:51:50;4.88;;;3.25;;
43152;SDS011;28756;49.064;9.290;2023-04-25T04:54:16;3.85;;;3.40;;
43152;SDS011;28756;49.064;9.290;2023-04-25T04:56:42;4.07;;;3.28;;
43152;SDS011;28756;49.064;9.290;2023-04-25T04:59:08;4.82;;;3.25;;
43152;SDS011;28756;49.064;9.290;2023-04-25T05:01:34;4.45;;;3.20;;
43152;SDS011;28756;49.064;9.290;2023-04-25T05:04:02;4.63;;;3.65;;
43152;SDS011;28756;49.064;9.290;2023-04-25T05:06:29;4.05;;;3.40;;
43152;SDS011;28756;49.064;9.290;2023-04-25T05:08:56;4.20;;;3.63;;
43152;SDS011;28756;49.064;9.290;2023-04-25T05:11:23;3.80;;;3.35;;
43152;SDS011;28756;49.064;9.290;2023-04-25T05:13:51;4.22;;;3.75;;
43152;SDS011;28756;49.064;9.290;2023-04-25T05:16:17;4.40;;;3.45;;
43152;SDS011;28756;49.064;9.290;2023-04-25T05:18:44;3.80;;;3.40;;
43152;SDS011;28756;49.064;9.290;2023-04-25T05:21:11;4.30;;;3.72;;
43152;SDS011;28756;49.064;9.290;2023-04-25T05:23:37;4.68;;;3.78;;
43152;SDS011;28756;49.064;9.290;2023-04-25T05:26:02;4.78;;;3.47;;
43152;SDS011;28756;49.064;9.290;2023-04-25T05:28:28;4.72;;;3.60;;
43152;SDS011;28756;49.064;9.290;2023-04-25T05:30:54;4.93;;;3.90;;
43152;SDS011;28756;49.064;9.290;2023-04-25T05:33:20;4.75;;;3.83;;
43152;SDS011;28756;49.064;9.290;2023-04-25T05:35:46;4.55;;;3.97;;
43152;SDS011;28756;49.064;9.290;2023-04-25T05:38:11;5.90;;;4.05;;
43152;SDS011;28756;49.064;9.290;2023-04-25T05:40:37;4.65;;;3.88;;
43152;SDS011;28756;49.064;9.290;2023-04-25T05:43:03;4.78;;;4.03;;
43152;SDS011;28756;49.064;9.290;2023-04-25T05:45:29;4.57;;;3.80;;
43152;SDS011;28756;49.064;9.290;2023-04-25T05:47:55;4.97;;;4.00;;
43152;SDS011;28756;49.064;9.290;2023-04-25T05:50:21;4.65;;;4.10;;
43152;SDS011;28756;49.064;9.290;2023-04-25T05:52:46;5.22;;;3.70;;
43152;SDS011;28756;49.064;9.290;2023-04-25T05:55:12;4.25;;;3.58;;
43152;SDS011;28756;49.064;9.290;2023-04-25T05:57:38;5.50;;;4.13;;
43152;SDS011;28756;49.064;9.290;2023-04-25T06:00:06;4.78;;;3.53;;
43152;SDS011;28756;49.064;9.290;2023-04-25T06:02:34;6.20;;;4.40;;
43152;SDS011;28756;49.064;9.290;2023-04-25T06:05:00;4.88;;;3.90;;
43152;SDS011;28756;49.064;9.290;2023-04-25T06:07:28;5.60;;;4.25;;
43152;SDS011;28756;49.064;9.290;2023-04-25T06:09:55;4.63;;;4.03;;
43152;SDS011;28756;49.064;9.290;2023-04-25T06:12:21;4.80;;;3.67;;
43152;SDS011;28756;49.064;9.290;2023-04-25T06:14:47;4.25;;;3.42;;
43152;SDS011;28756;49.064;9.290;2023-04-25T06:17:13;3.95;;;3.22;;
43152;SDS011;28756;49.064;9.290;2023-04-25T06:19:39;4.15;;;3.75;;
43152;SDS011;28756;49.064;9.290;2023-04-25T06:22:04;4.50;;;3.38;;
43152;SDS011;28756;49.064;9.290;2023-04-25T06:24:32;5.03;;;3.60;;
43152;SDS011;28756;49.064;9.290;2023-04-25T06:26:58;4.47;;;3.25;;
43152;SDS011;28756;49.064;9.290;2023-04-25T06:29:24;4.10;;;3.33;;
43152;SDS011;28756;49.064;9.290;2023-04-25T06:31:49;3.28;;;2.92;;
43152;SDS011;28756;49.064;9.290;2023-04-25T06:34:15;4.60;;;3.50;;
43152;SDS011;28756;49.064;9.290;2023-04-25T06:36:41;3.88;;;3.30;;
43152;SDS011;28756;49.064;9.290;2023-04-25T06:39:07;4.78;;;3.00;;
43152;SDS011;28756;49.064;9.290;2023-04-25T06:41:33;3.95;;;3.40;;
43152;SDS011;28756;49.064;9.290;2023-04-25T06:44:00;5.38;;;3.90;;
43152;SDS011;28756;49.064;9.290;2023-04-25T06:46:26;4.68;;;3.88;;
43152;SDS011;28756;49.064;9.290;2023-04-25T06:48:51;3.78;;;3.38;;
43152;SDS011;28756;49.064;9.290;2023-04-25T06:51:17;3.80;;;3.22;;
43152;SDS011;28756;49.064;9.290;2023-04-25T06:53:43;4.55;;;3.70;;
43152;SDS011;28756;49.064;9.290;2023-04-25T06:56:09;4.93;;;3.70;;
43152;SDS011;28756;49.064;9.290;2023-04-25T06:58:35;3.65;;;3.25;;
43152;SDS011;28756;49.064;9.290;2023-04-25T07:01:00;4.30;;;3.90;;
43152;SDS011;28756;49.064;9.290;2023-04-25T07:03:26;3.95;;;3.30;;
43152;SDS011;28756;49.064;9.290;2023-04-25T07:05:52;4.43;;;3.97;;
43152;SDS011;28756;49.064;9.290;2023-04-25T07:08:17;4.25;;;3.85;;
43152;SDS011;28756;49.064;9.290;2023-04-25T07:10:43;5.43;;;4.40;;
43152;SDS011;28756;49.064;9.290;2023-04-25T07:13:11;5.45;;;4.75;;
43152;SDS011;28756;49.064;9.290;2023-04-25T07:15:36;5.05;;;4.38;;
43152;SDS011;28756;49.064;9.290;2023-04-25T07:18:02;6.93;;;5.20;;
43152;SDS011;28756;49.064;9.290;2023-04-25T07:20:28;5.57;;;4.95;;
43152;SDS011;28756;49.064;9.290;2023-04-25T07:22:55;5.90;;;5.20;;
43152;SDS011;28756;49.064;9.290;2023-04-25T07:25:22;5.47;;;4.85;;
43152;SDS011;28756;49.064;9.290;2023-04-25T07:27:48;5.85;;;4.63;;
43152;SDS011;28756;49.064;9.290;2023-04-25T07:30:14;5.32;;;4.82;;
43152;SDS011;28756;49.064;9.290;2023-04-25T07:32:40;6.22;;;4.90;;
43152;SDS011;28756;49.064;9.290;2023-04-25T07:35:06;5.53;;;4.45;;
43152;SDS011;28756;49.064;9.290;2023-04-25T07:37:33;6.85;;;4.78;;
43152;SDS011;28756;49.064;9.290;2023-04-25T07:40:00;5.15;;;4.65;;
43152;SDS011;28756;49.064;9.290;2023-04-25T07:42:28;9.27;;;4.95;;
43152;SDS011;28756;49.064;9.290;2023-04-25T07:44:55;5.25;;;4.50;;
43152;SDS011;28756;49.064;9.290;2023-04-25T07:47:20;4.57;;;4.10;;
43152;SDS011;28756;49.064;9.290;2023-04-25T07:49:46;5.15;;;4.50;;
43152;SDS011;28756;49.064;9.290;2023-04-25T07:52:13;6.32;;;4.70;;
43152;SDS011;28756;49.064;9.290;2023-04-25T07:54:39;5.03;;;4.53;;
43152;SDS011;28756;49.064;9.290;2023-04-25T07:57:05;5.65;;;4.55;;
43152;SDS011;28756;49.064;9.290;2023-04-25T07:59:34;5.20;;;4.53;;
43152;SDS011;28756;49.064;9.290;2023-04-25T08:02:00;6.05;;;4.95;;
43152;SDS011;28756;49.064;9.290;2023-04-25T08:04:27;7.80;;;5.50;;
43152;SDS011;28756;49.064;9.290;2023-04-25T08:06:53;6.15;;;5.15;;
43152;SDS011;28756;49.064;9.290;2023-04-25T08:09:19;5.97;;;5.15;;
43152;SDS011;28756;49.064;9.290;2023-04-25T08:11:45;16.85;;;6.72;;
43152;SDS011;28756;49.064;9.290;2023-04-25T08:14:12;9.00;;;5.72;;
43152;SDS011;28756;49.064;9.290;2023-04-25T08:16:38;11.52;;;6.43;;
43152;SDS011;28756;49.064;9.290;2023-04-25T08:19:04;8.48;;;5.88;;
43152;SDS011;28756;49.064;9.290;2023-04-25T08:21:31;6.60;;;5.22;;
43152;SDS011;28756;49.064;9.290;2023-04-25T08:23:57;7.90;;;5.88;;
43152;SDS011;28756;49.064;9.290;2023-04-25T08:26:23;8.23;;;5.20;;
43152;SDS011;28756;49.064;9.290;2023-04-25T08:28:50;7.00;;;5.05;;
43152;SDS011;28756;49.064;9.290;2023-04-25T08:31:16;6.00;;;4.90;;
43152;SDS011;28756;49.064;9.290;2023-04-25T08:33:43;6.50;;;5.38;;
43152;SDS011;28756;49.064;9.290;2023-04-25T08:36:10;7.88;;;5.88;;
43152;SDS011;28756;49.064;9.290;2023-04-25T08:38:36;6.97;;;5.60;;
43152;SDS011;28756;49.064;9.290;2023-04-25T08:41:01;6.07;;;5.30;;
43152;SDS011;28756;49.064;9.290;2023-04-25T08:43:28;8.30;;;5.30;;
43152;SDS011;28756;49.064;9.290;2023-04-25T08:45:57;6.88;;;4.97;;
43152;SDS011;28756;49.064;9.290;2023-04-25T08:48:26;7.53;;;5.30;;
43152;SDS011;28756;49.064;9.290;2023-04-25T08:50:54;6.05;;;4.80;;
43152;SDS011;28756;49.064;9.290;2023-04-25T08:53:28;6.20;;;5.15;;
43152;SDS011;28756;49.064;9.290;2023-04-25T08:55:57;4.93;;;4.43;;
43152;SDS011;28756;49.064;9.290;2023-04-25T08:58:24;5.57;;;4.95;;
43152;SDS011;28756;49.064;9.290;2023-04-25T09:00:51;6.15;;;5.28;;
43152;SDS011;28756;49.064;9.290;2023-04-25T09:03:17;5.50;;;4.32;;
43152;SDS011;28756;49.064;9.290;2023-04-25T09:05:44;5.10;;;4.55;;
43152;SDS011;28756;49.064;9.290;2023-04-25T09:08:10;6.90;;;5.28;;
43152;SDS011;28756;49.064;9.290;2023-04-25T09:10:36;6.53;;;5.22;;
43152;SDS011;28756;49.064;9.290;2023-04-25T09:13:03;7.32;;;5.10;;
43152;SDS011;28756;49.064;9.290;2023-04-25T09:15:49;6.35;;;5.00;;
43152;SDS011;28756;49.064;9.290;2023-04-25T09:18:27;6.15;;;4.97;;
43152;SDS011;28756;49.064;9.290;2023-04-25T09:20:55;5.70;;;4.90;;
43152;SDS011;28756;49.064;9.290;2023-04-25T09:23:44;5.97;;;5.00;;
43152;SDS011;28756;49.064;9.290;2023-04-25T09:26:19;5.68;;;4.97;;
43152;SDS011;28756;49.064;9.290;2023-04-25T09:28:46;5.88;;;5.28;;
43152;SDS011;28756;49.064;9.290;2023-04-25T09:31:22;7.30;;;5.63;;
43152;SDS011;28756;49.064;9.290;2023-04-25T09:33:49;5.85;;;4.80;;
43152;SDS011;28756;49.064;9.290;2023-04-25T09:36:15;5.28;;;4.78;;
43152;SDS011;28756;49.064;9.290;2023-04-25T09:38:41;6.90;;;5.45;;
43152;SDS011;28756;49.064;9.290;2023-04-25T09:41:09;5.32;;;4.82;;
43152;SDS011;28756;49.064;9.290;2023-04-25T09:43:36;5.57;;;4.82;;
43152;SDS011;28756;49.064;9.290;2023-04-25T09:46:07;5.60;;;3.40;;
43152;SDS011;28756;49.064;9.290;2023-04-25T09:48:36;4.00;;;3.60;;
43152;SDS011;28756;49.064;9.290;2023-04-25T09:51:12;4.95;;;4.10;;
43152;SDS011;28756;49.064;9.290;2023-04-25T09:53:42;3.80;;;3.30;;
43152;SDS011;28756;49.064;9.290;2023-04-25T09:56:16;5.53;;;3.60;;
43152;SDS011;28756;49.064;9.290;2023-04-25T09:58:44;4.70;;;3.85;;
43152;SDS011;28756;49.064;9.290;2023-04-25T10:01:14;3.95;;;3.53;;
43152;SDS011;28756;49.064;9.290;2023-04-25T10:03:42;4.47;;;3.72;;
43152;SDS011;28756;49.064;9.290;2023-04-25T10:06:13;5.22;;;3.55;;
43152;SDS011;28756;49.064;9.290;2023-04-25T10:08:44;4.53;;;3.65;;
43152;SDS011;28756;49.064;9.290;2023-04-25T10:11:14;4.70;;;3.75;;
43152;SDS011;28756;49.064;9.290;2023-04-25T10:13:41;5.55;;;4.45;;
43152;SDS011;28756;49.064;9.290;2023-04-25T10:16:07;4.88;;;4.25;;
43152;SDS011;28756;49.064;9.290;2023-04-25T10:18:33;4.82;;;4.15;;
43152;SDS011;28756;49.064;9.290;2023-04-25T10:21:00;4.97;;;3.97;;
43152;SDS011;28756;49.064;9.290;2023-04-25T10:23:29;5.30;;;3.85;;
43152;SDS011;28756;49.064;9.290;2023-04-25T10:25:56;4.20;;;3.72;;
43152;SDS011;28756;49.064;9.290;2023-04-25T10:28:23;5.05;;;3.85;;
43152;SDS011;28756;49.064;9.290;2023-04-25T10:31:03;4.30;;;3.90;;
43152;SDS011;28756;49.064;9.290;2023-04-25T10:33:36;5.40;;;4.50;;
43152;SDS011;28756;49.064;9.290;2023-04-25T10:36:14;6.53;;;5.00;;
43152;SDS011;28756;49.064;9.290;2023-04-25T10:38:47;6.47;;;4.63;;
43152;SDS011;28756;49.064;9.290;2023-04-25T10:41:18;6.00;;;4.72;;
43152;SDS011;28756;49.064;9.290;2023-04-25T10:43:46;7.13;;;4.82;;
43152;SDS011;28756;49.064;9.290;2023-04-25T10:48:49;5.35;;;4.75;;
43152;SDS011;28756;49.064;9.290;2023-04-25T10:51:26;5.03;;;4.32;;
43152;SDS011;28756;49.064;9.290;2023-04-25T10:56:21;5.53;;;5.00;;
43152;SDS011;28756;49.064;9.290;2023-04-25T10:58:49;6.15;;;4.53;;
43152;SDS011;28756;49.064;9.290;2023-04-25T11:01:19;4.75;;;3.95;;
43152;SDS011;28756;49.064;9.290;2023-04-25T11:03:46;6.13;;;4.18;;
43152;SDS011;28756;49.064;9.290;2023-04-25T11:09:20;4.63;;;4.13;;
43152;SDS011;28756;49.064;9.290;2023-04-25T11:11:56;4.63;;;4.00;;
43152;SDS011;28756;49.064;9.290;2023-04-25T11:14:23;5.97;;;4.85;;
43152;SDS011;28756;49.064;9.290;2023-04-25T11:16:53;6.15;;;5.47;;
43152;SDS011;28756;49.064;9.290;2023-04-25T11:19:20;6.03;;;5.30;;
43152;SDS011;28756;49.064;9.290;2023-04-25T11:21:47;6.40;;;4.75;;
43152;SDS011;28756;49.064;9.290;2023-04-25T11:24:13;4.93;;;4.43;;
43152;SDS011;28756;49.064;9.290;2023-04-25T11:26:44;4.78;;;3.90;;
43152;SDS011;28756;49.064;9.290;2023-04-25T11:29:15;4.65;;;3.65;;
43152;SDS011;28756;49.064;9.290;2023-04-25T11:31:44;4.13;;;3.72;;
43152;SDS011;28756;49.064;9.290;2023-04-25T11:34:16;4.05;;;3.63;;
43152;SDS011;28756;49.064;9.290;2023-04-25T11:36:44;5.20;;;3.83;;
43152;SDS011;28756;49.064;9.290;2023-04-25T11:39:11;4.45;;;3.60;;
43152;SDS011;28756;49.064;9.290;2023-04-25T11:41:37;5.80;;;5.00;;
43152;SDS011;28756;49.064;9.290;2023-04-25T11:44:03;4.78;;;3.90;;
43152;SDS011;28756;49.064;9.290;2023-04-25T11:46:30;4.88;;;4.03;;
43152;SDS011;28756;49.064;9.290;2023-04-25T11:48:59;4.55;;;3.65;;
43152;SDS011;28756;49.064;9.290;2023-04-25T11:51:25;4.72;;;4.20;;
43152;SDS011;28756;49.064;9.290;2023-04-25T11:53:52;5.07;;;4.00;;
43152;SDS011;28756;49.064;9.290;2023-04-25T11:56:17;5.28;;;4.60;;
43152;SDS011;28756;49.064;9.290;2023-04-25T11:59:00;4.28;;;3.80;;
43152;SDS011;28756;49.064;9.290;2023-04-25T12:01:37;6.13;;;4.20;;
43152;SDS011;28756;49.064;9.290;2023-04-25T12:04:12;4.15;;;3.50;;
43152;SDS011;28756;49.064;9.290;2023-04-25T12:06:42;4.20;;;3.80;;
43152;SDS011;28756;49.064;9.290;2023-04-25T12:09:13;4.95;;;3.70;;
43152;SDS011;28756;49.064;9.290;2023-04-25T12:11:47;6.78;;;4.38;;
43152;SDS011;28756;49.064;9.290;2023-04-25T12:14:21;5.93;;;4.57;;
43152;SDS011;28756;49.064;9.290;2023-04-25T12:16:56;6.10;;;4.30;;
43152;SDS011;28756;49.064;9.290;2023-04-25T12:19:31;4.80;;;4.20;;
43152;SDS011;28756;49.064;9.290;2023-04-25T12:21:59;5.97;;;4.03;;
43152;SDS011;28756;49.064;9.290;2023-04-25T12:24:44;5.70;;;4.18;;
43152;SDS011;28756;49.064;9.290;2023-04-25T12:27:10;7.13;;;4.10;;
43152;SDS011;28756;49.064;9.290;2023-04-25T12:29:49;6.43;;;4.28;;
43152;SDS011;28756;49.064;9.290;2023-04-25T12:32:20;6.45;;;4.40;;
43152;SDS011;28756;49.064;9.290;2023-04-25T12:34:46;6.18;;;4.45;;
43152;SDS011;28756;49.064;9.290;2023-04-25T12:37:12;6.07;;;4.60;;
43152;SDS011;28756;49.064;9.290;2023-04-25T12:39:38;6.43;;;5.00;;
43152;SDS011;28756;49.064;9.290;2023-04-25T12:42:04;9.95;;;5.30;;
43152;SDS011;28756;49.064;9.290;2023-04-25T12:44:32;5.85;;;4.32;;
43152;SDS011;28756;49.064;9.290;2023-04-25T12:46:59;7.38;;;4.65;;
43152;SDS011;28756;49.064;9.290;2023-04-25T12:49:25;6.60;;;4.97;;
43152;SDS011;28756;49.064;9.290;2023-04-25T12:51:50;6.68;;;4.93;;
43152;SDS011;28756;49.064;9.290;2023-04-25T12:54:16;6.60;;;4.80;;
43152;SDS011;28756;49.064;9.290;2023-04-25T12:56:42;7.68;;;4.80;;
43152;SDS011;28756;49.064;9.290;2023-04-25T12:59:08;8.43;;;5.40;;
43152;SDS011;28756;49.064;9.290;2023-04-25T13:01:34;7.25;;;5.97;;
43152;SDS011;28756;49.064;9.290;2023-04-25T13:04:01;8.02;;;5.38;;
43152;SDS011;28756;49.064;9.290;2023-04-25T13:06:27;9.43;;;5.80;;
43152;SDS011;28756;49.064;9.290;2023-04-25T13:08:54;7.93;;;5.35;;
43152;SDS011;28756;49.064;9.290;2023-04-25T13:11:20;10.45;;;5.78;;
43152;SDS011;28756;49.064;9.290;2023-04-25T13:13:46;9.65;;;5.70;;
43152;SDS011;28756;49.064;9.290;2023-04-25T13:16:12;9.18;;;6.30;;
43152;SDS011;28756;49.064;9.290;2023-04-25T13:18:40;8.35;;;6.32;;
43152;SDS011;28756;49.064;9.290;2023-04-25T13:21:07;8.88;;;6.63;;
43152;SDS011;28756;49.064;9.290;2023-04-25T13:23:37;10.35;;;6.45;;
43152;SDS011;28756;49.064;9.290;2023-04-25T13:26:03;8.35;;;6.05;;
43152;SDS011;28756;49.064;9.290;2023-04-25T13:28:29;10.20;;;5.45;;
43152;SDS011;28756;49.064;9.290;2023-04-25T13:30:55;8.73;;;5.40;;
43152;SDS011;28756;49.064;9.290;2023-04-25T13:33:20;10.25;;;5.13;;
43152;SDS011;28756;49.064;9.290;2023-04-25T13:35:47;8.18;;;5.38;;
43152;SDS011;28756;49.064;9.290;2023-04-25T13:38:22;8.25;;;5.63;;
43152;SDS011;28756;49.064;9.290;2023-04-25T13:40:49;10.13;;;5.80;;
43152;SDS011;28756;49.064;9.290;2023-04-25T13:43:17;8.18;;;5.55;;
43152;SDS011;28756;49.064;9.290;2023-04-25T13:45:45;6.97;;;5.00;;
43152;SDS011;28756;49.064;9.290;2023-04-25T13:48:11;10.55;;;4.60;;
43152;SDS011;28756;49.064;9.290;2023-04-25T13:50:37;8.45;;;4.60;;
43152;SDS011;28756;49.064;9.290;2023-04-25T13:53:03;6.78;;;4.40;;
43152;SDS011;28756;49.064;9.290;2023-04-25T13:55:28;9.80;;;5.38;;
43152;SDS011;28756;49.064;9.290;2023-04-25T13:57:55;6.63;;;4.30;;
43152;SDS011;28756;49.064;9.290;2023-04-25T14:00:20;7.97;;;4.47;;
43152;SDS011;28756;49.064;9.290;2023-04-25T14:02:46;6.57;;;4.05;;
43152;SDS011;28756;49.064;9.290;2023-04-25T14:05:12;6.22;;;4.30;;
43152;SDS011;28756;49.064;9.290;2023-04-25T14:07:39;5.63;;;4.20;;
43152;SDS011;28756;49.064;9.290;2023-04-25T14:10:04;8.25;;;4.47;;
43152;SDS011;28756;49.064;9.290;2023-04-25T14:12:31;5.60;;;3.60;;
43152;SDS011;28756;49.064;9.290;2023-04-25T14:14:57;6.20;;;3.58;;
43152;SDS011;28756;49.064;9.290;2023-04-25T14:17:23;5.57;;;3.38;;
43152;SDS011;28756;49.064;9.290;2023-04-25T14:19:49;6.10;;;3.75;;
43152;SDS011;28756;49.064;9.290;2023-04-25T14:22:15;5.53;;;3.03;;
43152;SDS011;28756;49.064;9.290;2023-04-25T14:24:41;5.75;;;3.70;;
43152;SDS011;28756;49.064;9.290;2023-04-25T14:27:07;5.68;;;4.00;;
43152;SDS011;28756;49.064;9.290;2023-04-25T14:29:33;4.75;;;3.55;;
43152;SDS011;28756;49.064;9.290;2023-04-25T14:32:00;6.18;;;3.50;;
43152;SDS011;28756;49.064;9.290;2023-04-25T14:34:25;5.10;;;3.55;;
43152;SDS011;28756;49.064;9.290;2023-04-25T14:36:52;5.47;;;3.67;;
43152;SDS011;28756;49.064;9.290;2023-04-25T14:39:17;4.60;;;3.47;;
43152;SDS011;28756;49.064;9.290;2023-04-25T14:41:44;5.18;;;3.60;;
43152;SDS011;28756;49.064;9.290;2023-04-25T14:44:10;5.22;;;3.83;;
43152;SDS011;28756;49.064;9.290;2023-04-25T14:46:36;5.05;;;3.30;;
43152;SDS011;28756;49.064;9.290;2023-04-25T14:49:02;4.88;;;2.78;;
43152;SDS011;28756;49.064;9.290;2023-04-25T14:51:28;4.88;;;3.53;;
43152;SDS011;28756;49.064;9.290;2023-04-25T14:53:54;3.95;;;2.85;;
43152;SDS011;28756;49.064;9.290;2023-04-25T14:56:20;4.60;;;3.10;;